Alief, Texas
Current Conditions -  °F | °C
As of 9:53 AM on Friday 31 Oct 2014 (Local Time) from KSGR Reporting Station
Clear Clear  
Wind Chill: 68°   Ceiling: Unl
Heat Index: 68°   Visibility: 10mi
Dew Point: 52°   Wind: 6mph
Humidity: 56%   Direction: 340°NNW
Pressure: 30.19"   Gusts: NA
Location:  29.71°N, 95.6°W
Report Text: KSGR 311453Z 34005KT 10SM CLR 20/11 A3019 RMK AO2 SLP224 T02000111 53021
Loading
Personal Weather Stations






























Interactive Weather Map
Tropical Storm Tracking
New forecast layout! Learn more

10-Day Weather Forecast

Advertisements
Track Severe Weather on mobile